createdAt,value
2022-09-10T00:00:58.522Z,100.00
2022-09-10T00:03:03.118Z,100.00
2022-09-10T00:05:10.080Z,100.00
2022-09-10T00:07:15.063Z,100.00
2022-09-10T00:09:18.964Z,100.00
2022-09-10T00:11:22.402Z,100.00
2022-09-10T00:13:26.150Z,100.00
2022-09-10T00:15:29.747Z,100.00
2022-09-10T00:17:33.872Z,100.00
2022-09-10T00:19:37.588Z,100.00
2022-09-10T00:21:41.397Z,100.00
2022-09-10T00:23:46.833Z,100.00
2022-09-10T00:25:52.263Z,100.00
2022-09-10T00:27:55.717Z,100.00
2022-09-10T00:30:00.557Z,100.00
2022-09-10T00:32:04.804Z,100.00
2022-09-10T00:34:09.311Z,100.00
2022-09-10T00:36:17.084Z,100.00
2022-09-10T00:38:21.276Z,100.00
2022-09-10T00:40:26.843Z,100.00
2022-09-10T00:42:30.852Z,100.00
2022-09-10T00:44:57.594Z,100.00
2022-09-10T00:47:01.725Z,100.00
2022-09-10T00:49:11.626Z,100.00
2022-09-10T00:51:15.512Z,100.00
2022-09-10T00:53:23.331Z,100.00
2022-09-10T00:55:29.626Z,100.00
2022-09-10T00:57:33.688Z,100.00
2022-09-10T00:59:37.800Z,100.00
2022-09-10T01:01:42.275Z,100.00
2022-09-10T01:03:47.806Z,100.00
2022-09-10T01:05:52.682Z,100.00
2022-09-10T01:07:57.138Z,100.00
2022-09-10T01:10:03.550Z,100.00
2022-09-10T01:12:22.389Z,100.00
2022-09-10T01:14:45.486Z,100.00
2022-09-10T01:16:59.382Z,100.00
2022-09-10T01:19:18.793Z,100.00
2022-09-10T01:21:26.071Z,100.00
2022-09-10T01:24:03.005Z,100.00
2022-09-10T01:26:20.177Z,100.00
2022-09-10T01:28:31.802Z,100.00
2022-09-10T01:30:40.047Z,100.00
2022-09-10T01:32:53.789Z,100.00
2022-09-10T01:35:06.979Z,100.00
2022-09-10T01:37:21.723Z,100.00
2022-09-10T01:39:27.375Z,100.00
2022-09-10T01:41:32.289Z,100.00
2022-09-10T01:43:37.905Z,100.00
2022-09-10T01:45:52.592Z,100.00
2022-09-10T01:48:10.257Z,100.00
2022-09-10T01:50:26.597Z,100.00
2022-09-10T01:52:42.379Z,100.00
2022-09-10T01:55:00.394Z,100.00
2022-09-10T01:57:16.361Z,100.00
2022-09-10T01:59:28.987Z,100.00
2022-09-10T02:01:39.775Z,100.00
2022-09-10T02:03:47.901Z,100.00
2022-09-10T02:05:54.447Z,100.00
2022-09-10T02:08:02.020Z,100.00
2022-09-10T02:10:09.469Z,100.00
2022-09-10T02:12:21.128Z,100.00
2022-09-10T02:14:33.804Z,100.00
2022-09-10T02:16:58.823Z,100.00
2022-09-10T02:19:03.722Z,100.00
2022-09-10T02:21:08.299Z,100.00
2022-09-10T02:23:13.498Z,100.00
2022-09-10T02:25:17.507Z,100.00
2022-09-10T02:27:20.804Z,100.00
2022-09-10T02:29:24.676Z,100.00
2022-09-10T02:31:29.835Z,100.00
2022-09-10T02:33:33.108Z,100.00
2022-09-10T02:35:37.805Z,100.00
2022-09-10T02:37:43.277Z,100.00
2022-09-10T02:39:47.853Z,100.00
2022-09-10T02:41:51.424Z,100.00
2022-09-10T02:43:54.702Z,100.00
2022-09-10T02:45:58.362Z,100.00
2022-09-10T02:48:04.429Z,100.00
2022-09-10T02:50:10.046Z,100.00
2022-09-10T02:52:13.460Z,100.00
2022-09-10T02:54:16.789Z,100.00
2022-09-10T02:56:20.717Z,100.00
2022-09-10T02:58:23.934Z,100.00
2022-09-10T03:00:27.375Z,100.00
2022-09-10T03:02:30.825Z,100.00
2022-09-10T03:04:35.467Z,100.00
2022-09-10T03:06:40.275Z,100.00
2022-09-10T03:08:43.608Z,100.00
2022-09-10T03:10:46.870Z,100.00
2022-09-10T03:12:50.264Z,100.00
2022-09-10T03:14:53.551Z,100.00
2022-09-10T03:17:00.317Z,100.00
2022-09-10T03:19:03.680Z,100.00
2022-09-10T03:21:15.000Z,100.00
2022-09-10T03:23:18.298Z,100.00
2022-09-10T03:25:22.899Z,100.00
2022-09-10T03:27:26.345Z,100.00
2022-09-10T03:29:31.185Z,100.00
2022-09-10T03:31:36.147Z,100.00
2022-09-10T03:33:39.958Z,100.00
2022-09-10T03:35:43.932Z,100.00
2022-09-10T03:37:49.215Z,100.00
2022-09-10T03:39:53.201Z,100.00
2022-09-10T03:41:56.568Z,100.00
2022-09-10T03:43:59.850Z,100.00
2022-09-10T03:46:03.778Z,100.00
2022-09-10T03:48:07.083Z,100.00
2022-09-10T03:50:10.894Z,100.00
2022-09-10T03:52:14.376Z,100.00
2022-09-10T03:54:20.900Z,100.00
2022-09-10T03:56:24.173Z,100.00
2022-09-10T03:58:28.769Z,100.00
2022-09-10T04:00:32.004Z,100.00
2022-09-10T04:02:36.861Z,100.00
2022-09-10T04:04:40.071Z,100.00
2022-09-10T04:06:45.550Z,100.00
2022-09-10T04:08:52.152Z,100.00
2022-09-10T04:11:03.284Z,100.00
2022-09-10T04:13:07.168Z,100.00
2022-09-10T04:15:13.422Z,100.00
2022-09-10T04:17:18.122Z,100.00
2022-09-10T04:19:22.030Z,100.00
2022-09-10T04:21:26.436Z,100.00
2022-09-10T04:23:30.343Z,100.00
2022-09-10T04:25:33.677Z,100.00
2022-09-10T04:27:38.729Z,100.00
2022-09-10T04:29:43.126Z,100.00
2022-09-10T04:31:46.925Z,100.00
2022-09-10T04:33:53.367Z,100.00
2022-09-10T04:36:00.581Z,100.00
2022-09-10T04:38:04.095Z,100.00
2022-09-10T04:40:09.427Z,100.00
2022-09-10T04:42:15.517Z,100.00
2022-09-10T04:44:20.443Z,100.00
2022-09-10T04:46:24.138Z,100.00
2022-09-10T04:48:29.654Z,100.00
2022-09-10T04:50:32.833Z,100.00
2022-09-10T04:52:53.229Z,100.00
2022-09-10T04:54:56.742Z,100.00
2022-09-10T04:57:01.328Z,100.00
2022-09-10T04:59:05.250Z,100.00
2022-09-10T05:01:14.060Z,100.00
2022-09-10T05:03:19.766Z,100.00
2022-09-10T05:05:23.502Z,100.00
2022-09-10T05:07:26.906Z,100.00
2022-09-10T05:09:31.488Z,100.00
2022-09-10T05:11:36.905Z,100.00
2022-09-10T05:13:40.616Z,100.00
2022-09-10T05:15:44.081Z,100.00
2022-09-10T05:17:49.399Z,100.00
2022-09-10T05:19:52.593Z,100.00
2022-09-10T05:21:56.571Z,100.00
2022-09-10T05:24:00.803Z,100.00
2022-09-10T05:26:04.095Z,100.00
2022-09-10T05:28:07.511Z,100.00
2022-09-10T05:30:11.871Z,100.00
2022-09-10T05:32:15.322Z,100.00
2022-09-10T05:34:20.601Z,100.00
2022-09-10T05:36:24.413Z,100.00
2022-09-10T05:38:27.799Z,100.00
2022-09-10T05:40:31.640Z,100.00
2022-09-10T05:42:35.738Z,100.00
2022-09-10T05:44:39.544Z,100.00
2022-09-10T05:46:42.993Z,100.00
2022-09-10T05:48:49.226Z,100.00
2022-09-10T05:50:55.505Z,100.00
2022-09-10T05:52:58.736Z,100.00
2022-09-10T05:55:03.488Z,100.00
2022-09-10T05:57:07.179Z,100.00
2022-09-10T05:59:12.045Z,100.00
2022-09-10T06:01:18.764Z,100.00
2022-09-10T06:03:22.425Z,100.00
2022-09-10T06:05:26.728Z,100.00
2022-09-10T06:07:32.322Z,100.00
2022-09-10T06:09:35.515Z,100.00
2022-09-10T06:11:43.399Z,100.00
2022-09-10T06:13:47.416Z,100.00
2022-09-10T06:15:50.654Z,100.00
2022-09-10T06:17:58.012Z,100.00
2022-09-10T06:20:01.482Z,100.00
2022-09-10T06:22:11.136Z,100.00
2022-09-10T06:24:18.872Z,100.00
2022-09-10T06:26:22.825Z,100.00
2022-09-10T06:28:29.710Z,100.00
2022-09-10T06:30:32.913Z,100.00
2022-09-10T06:32:36.413Z,100.00
2022-09-10T06:34:39.930Z,98.23
2022-09-10T06:36:45.780Z,96.73
2022-09-10T06:38:49.666Z,93.89
2022-09-10T06:40:55.575Z,91.53
2022-09-10T06:43:02.627Z,89.58
2022-09-10T06:45:29.176Z,89.14
2022-09-10T06:50:20.311Z,85.25
2022-09-10T06:52:25.046Z,83.92
2022-09-10T06:54:35.526Z,81.46
2022-09-10T06:56:54.702Z,80.55
2022-09-10T06:59:02.184Z,79.80
2022-09-10T07:01:14.858Z,79.77
2022-09-10T07:03:23.339Z,79.54
2022-09-10T07:05:27.883Z,77.87
2022-09-10T07:07:31.487Z,78.18
2022-09-10T07:09:35.030Z,78.57
2022-09-10T07:11:41.574Z,77.46
2022-09-10T07:13:51.899Z,76.99
2022-09-10T07:15:56.872Z,78.59
2022-09-10T07:18:00.118Z,80.24
2022-09-10T07:20:04.440Z,81.96
2022-09-10T07:22:21.777Z,83.64
2022-09-10T07:24:25.704Z,84.54
2022-09-10T07:26:57.855Z,82.06
2022-09-10T07:29:03.446Z,78.15
2022-09-10T07:31:13.826Z,76.09
2022-09-10T07:33:18.255Z,74.54
2022-09-10T07:35:22.044Z,73.94
2022-09-10T07:37:26.892Z,73.79
2022-09-10T07:39:31.899Z,75.33
2022-09-10T07:41:36.401Z,76.80
2022-09-10T07:43:44.979Z,78.23
2022-09-10T07:45:51.264Z,79.32
2022-09-10T07:47:55.040Z,80.96
2022-09-10T07:50:00.143Z,82.37
2022-09-10T07:52:05.146Z,83.95
2022-09-10T07:54:17.448Z,86.37
2022-09-10T07:56:27.542Z,88.55
2022-09-10T07:58:32.513Z,89.29
2022-09-10T08:00:36.831Z,89.39
2022-09-10T08:02:46.747Z,89.90
2022-09-10T08:04:54.738Z,90.37
2022-09-10T08:06:59.447Z,90.78
2022-09-10T08:09:07.381Z,91.04
2022-09-10T08:11:16.803Z,91.53
2022-09-10T08:13:22.865Z,92.83
2022-09-10T08:15:26.736Z,93.96
2022-09-10T08:17:31.403Z,93.92
2022-09-10T08:19:37.178Z,93.54
2022-09-10T08:21:41.137Z,92.83
2022-09-10T08:23:49.507Z,93.05
2022-09-10T08:25:53.546Z,92.42
2022-09-10T08:27:58.131Z,92.04
2022-09-10T08:30:01.750Z,91.81
2022-09-10T08:32:06.462Z,91.52
2022-09-10T08:34:14.171Z,91.76
2022-09-10T08:36:24.342Z,91.18
2022-09-10T08:38:31.870Z,91.23
2022-09-10T08:40:38.883Z,91.63
2022-09-10T08:42:46.971Z,91.68
2022-09-10T08:44:56.638Z,91.15
2022-09-10T08:47:26.542Z,89.91
2022-09-10T08:49:38.506Z,89.87
2022-09-10T08:51:50.675Z,88.70
2022-09-10T08:54:00.014Z,89.13
2022-09-10T08:56:06.635Z,90.08
2022-09-10T08:58:19.328Z,89.36
2022-09-10T09:00:26.608Z,89.61
2022-09-10T09:02:48.994Z,89.51
2022-09-10T09:05:00.580Z,89.33
2022-09-10T09:07:14.467Z,90.13
2022-09-10T09:09:20.506Z,89.91
2022-09-10T09:11:34.536Z,90.24
2022-09-10T09:13:52.735Z,89.98
2022-09-10T09:16:07.603Z,90.34
2022-09-10T09:18:23.056Z,90.10
2022-09-10T09:20:39.307Z,88.33
2022-09-10T09:22:52.629Z,86.72
2022-09-10T09:25:10.055Z,83.56
2022-09-10T09:27:17.744Z,82.11
2022-09-10T09:29:28.727Z,81.48
2022-09-10T09:31:40.787Z,79.97
2022-09-10T09:33:48.270Z,80.50
2022-09-10T09:35:54.965Z,80.59
2022-09-10T09:38:16.759Z,79.19
2022-09-10T09:40:33.814Z,78.79
2022-09-10T09:42:46.635Z,79.38
2022-09-10T09:44:57.527Z,79.38
2022-09-10T09:47:03.260Z,79.78
2022-09-10T09:49:16.106Z,79.08
2022-09-10T09:51:22.213Z,79.17
2022-09-10T09:53:29.414Z,78.92
2022-09-10T09:55:37.265Z,77.96
2022-09-10T09:57:43.046Z,78.25
2022-09-10T09:59:46.941Z,78.18
2022-09-10T10:01:51.973Z,78.36
2022-09-10T10:04:01.963Z,78.09
2022-09-10T10:06:08.196Z,78.46
2022-09-10T10:08:31.543Z,77.54
2022-09-10T10:10:35.545Z,78.37
2022-09-10T10:12:49.715Z,78.17
2022-09-10T10:14:53.509Z,77.62
2022-09-10T10:17:00.544Z,78.01
2022-09-10T10:19:05.437Z,77.81
2022-09-10T10:21:17.576Z,78.12
2022-09-10T10:23:36.767Z,78.17
2022-09-10T10:25:41.593Z,76.36
2022-09-10T10:27:47.947Z,75.21
2022-09-10T10:29:57.318Z,74.29
2022-09-10T10:32:05.465Z,74.66
2022-09-10T10:34:29.822Z,72.61
2022-09-10T10:36:53.538Z,71.09
2022-09-10T10:39:09.259Z,71.15
2022-09-10T10:41:47.259Z,70.70
2022-09-10T10:44:01.679Z,70.63
2022-09-10T10:46:11.202Z,69.22
2022-09-10T10:48:23.931Z,69.31
2022-09-10T10:50:35.003Z,70.13
2022-09-10T10:52:47.531Z,71.13
2022-09-10T10:55:07.805Z,71.77
2022-09-10T10:57:24.597Z,71.01
2022-09-10T10:59:45.410Z,68.72
2022-09-10T11:01:54.659Z,68.69
2022-09-10T11:04:09.049Z,67.58
2022-09-10T11:06:16.253Z,66.23
2022-09-10T11:08:36.086Z,66.80
2022-09-10T11:10:45.597Z,65.85
2022-09-10T11:12:56.318Z,67.16
2022-09-10T11:17:59.999Z,69.71
2022-09-10T11:22:53.585Z,68.45
2022-09-10T11:25:04.907Z,69.22
2022-09-10T11:27:15.996Z,68.86
2022-09-10T11:29:42.549Z,68.65
2022-09-10T11:31:50.638Z,68.94
2022-09-10T11:34:04.376Z,67.75
2022-09-10T11:36:17.076Z,68.20
2022-09-10T11:38:26.287Z,68.73
2022-09-10T11:40:37.859Z,68.26
2022-09-10T11:42:59.037Z,67.95
2022-09-10T11:45:10.939Z,68.23
2022-09-10T11:47:19.510Z,67.72
2022-09-10T11:49:26.721Z,66.88
2022-09-10T11:51:35.345Z,67.22
2022-09-10T11:53:39.139Z,66.60
2022-09-10T11:55:54.607Z,66.60
2022-09-10T11:58:07.710Z,66.32
2022-09-10T12:00:17.344Z,65.93
2022-09-10T12:02:57.509Z,66.14
2022-09-10T12:05:13.014Z,66.44
2022-09-10T12:07:30.329Z,66.48
2022-09-10T12:09:42.465Z,66.76
2022-09-10T12:11:53.599Z,65.81
2022-09-10T12:13:59.180Z,66.48
2022-09-10T12:16:10.726Z,66.29
2022-09-10T12:18:18.674Z,66.65
2022-09-10T12:20:29.493Z,67.34
2022-09-10T12:22:37.222Z,68.00
2022-09-10T12:24:41.174Z,68.47
2022-09-10T12:26:46.866Z,69.18
2022-09-10T12:29:05.039Z,69.27
2022-09-10T12:31:09.099Z,68.98
2022-09-10T12:33:37.967Z,69.19
2022-09-10T12:35:47.075Z,69.37
2022-09-10T12:37:50.912Z,68.82
2022-09-10T12:40:32.686Z,68.14
2022-09-10T12:42:37.078Z,68.67
2022-09-10T12:44:51.146Z,68.77
2022-09-10T12:47:28.165Z,68.72
2022-09-10T12:49:31.759Z,68.56
2022-09-10T12:51:47.269Z,68.88
2022-09-10T12:54:15.135Z,68.33
2022-09-10T12:57:00.902Z,68.49
2022-09-10T12:59:19.538Z,69.56
2022-09-10T13:01:40.574Z,70.44
2022-09-10T13:03:54.807Z,70.58
2022-09-10T13:06:03.422Z,70.30
2022-09-10T13:08:18.129Z,70.67
2022-09-10T13:10:24.638Z,70.96
2022-09-10T13:12:28.840Z,70.46
2022-09-10T13:14:36.285Z,70.54
2022-09-10T13:16:43.561Z,69.99
2022-09-10T13:18:48.482Z,70.79
2022-09-10T13:20:52.079Z,70.32
2022-09-10T13:22:58.521Z,70.82
2022-09-10T13:25:07.523Z,71.06
2022-09-10T13:27:22.805Z,71.39
2022-09-10T13:29:34.074Z,71.46
2022-09-10T13:31:43.756Z,71.93
2022-09-10T13:34:21.166Z,71.30
2022-09-10T13:36:34.533Z,71.69
2022-09-10T13:38:59.699Z,71.41
2022-09-10T13:41:23.961Z,71.87
2022-09-10T13:43:48.969Z,72.54
2022-09-10T13:45:55.677Z,73.98
2022-09-10T13:48:04.027Z,75.02
2022-09-10T13:50:15.687Z,75.51
2022-09-10T13:52:23.814Z,76.01
2022-09-10T13:54:35.791Z,76.52
2022-09-10T13:56:44.926Z,76.88
2022-09-10T13:58:52.572Z,77.32
2022-09-10T14:00:58.384Z,76.80
2022-09-10T14:03:03.364Z,77.02
2022-09-10T14:05:24.512Z,77.95
2022-09-10T14:07:29.979Z,78.03
2022-09-10T14:09:34.962Z,78.03
2022-09-10T14:11:42.742Z,77.99
2022-09-10T14:13:52.077Z,77.66
2022-09-10T14:16:01.660Z,77.89
2022-09-10T14:18:06.960Z,78.24
2022-09-10T14:20:19.662Z,78.35
2022-09-10T14:22:26.098Z,78.10
2022-09-10T14:24:32.011Z,77.62
2022-09-10T14:26:35.846Z,78.08
2022-09-10T14:28:50.876Z,77.87
2022-09-10T14:31:20.726Z,78.38
2022-09-10T14:33:33.005Z,78.74
2022-09-10T14:35:40.848Z,78.87
2022-09-10T14:37:44.714Z,78.65
2022-09-10T14:39:49.243Z,79.03
2022-09-10T14:42:11.665Z,79.51
2022-09-10T14:44:29.875Z,78.84
2022-09-10T14:46:54.372Z,78.63
2022-09-10T14:49:11.491Z,79.11
2022-09-10T14:51:17.751Z,79.22
2022-09-10T14:53:21.227Z,79.42
2022-09-10T14:55:27.212Z,80.04
2022-09-10T14:57:30.775Z,79.65
2022-09-10T14:59:38.785Z,79.55
2022-09-10T15:01:43.195Z,80.01
2022-09-10T15:03:46.887Z,79.64
2022-09-10T15:05:52.035Z,79.69
2022-09-10T15:07:55.621Z,79.83
2022-09-10T15:09:59.278Z,80.34
2022-09-10T15:12:07.249Z,80.42
2022-09-10T15:14:21.173Z,80.03
2022-09-10T15:16:24.988Z,81.03
2022-09-10T15:18:28.520Z,81.09
2022-09-10T15:20:32.044Z,80.75
2022-09-10T15:22:37.112Z,80.88
2022-09-10T15:25:05.572Z,80.41
2022-09-10T15:27:05.120Z,80.16
2022-09-10T15:29:08.918Z,80.22
2022-09-10T15:31:12.849Z,79.82
2022-09-10T15:33:16.859Z,79.96
2022-09-10T15:35:20.292Z,80.11
2022-09-10T15:37:24.537Z,80.54
2022-09-10T15:39:30.168Z,80.99
2022-09-10T15:41:34.693Z,80.83
2022-09-10T15:43:41.477Z,80.12
2022-09-10T15:45:45.270Z,79.58
2022-09-10T15:47:48.832Z,79.46
2022-09-10T15:49:53.818Z,79.75
2022-09-10T15:51:57.378Z,80.32
2022-09-10T15:54:04.926Z,80.44
2022-09-10T15:56:11.974Z,80.38
2022-09-10T15:58:15.883Z,80.22
2022-09-10T16:00:20.300Z,80.88
2022-09-10T16:02:23.992Z,81.03
2022-09-10T16:04:30.613Z,81.19
2022-09-10T16:06:38.303Z,81.75
2022-09-10T16:08:42.058Z,81.39
2022-09-10T16:10:45.799Z,81.60
2022-09-10T16:12:50.687Z,81.55
2022-09-10T16:14:54.877Z,81.87
2022-09-10T16:16:59.022Z,81.14
2022-09-10T16:19:02.780Z,81.07
2022-09-10T16:21:12.202Z,80.92
2022-09-10T16:23:17.393Z,81.11
2022-09-10T16:25:21.587Z,81.58
2022-09-10T16:27:25.168Z,81.62
2022-09-10T16:29:30.337Z,81.73
2022-09-10T16:31:35.579Z,81.93
2022-09-10T16:33:39.183Z,81.90
2022-09-10T16:35:42.972Z,81.75
2022-09-10T16:37:46.359Z,82.26
2022-09-10T16:39:50.205Z,82.41
2022-09-10T16:41:53.797Z,82.66
2022-09-10T16:43:59.902Z,82.87
2022-09-10T16:46:05.680Z,82.78
2022-09-10T16:48:09.778Z,82.50
2022-09-10T16:50:17.296Z,82.60
2022-09-10T16:52:20.905Z,82.76
2022-09-10T16:54:26.871Z,82.62
2022-09-10T16:56:33.781Z,82.82
2022-09-10T16:58:39.061Z,82.55
2022-09-10T17:00:42.997Z,82.63
2022-09-10T17:02:48.146Z,82.69
2022-09-10T17:04:52.797Z,82.39
2022-09-10T17:06:56.598Z,81.82
2022-09-10T17:09:01.996Z,82.39
2022-09-10T17:11:05.635Z,81.20
2022-09-10T17:13:11.508Z,81.48
2022-09-10T17:15:15.572Z,81.12
2022-09-10T17:17:19.179Z,81.08
2022-09-10T17:19:26.677Z,80.71
2022-09-10T17:21:32.710Z,80.43
2022-09-10T17:23:36.555Z,80.29
2022-09-10T17:25:40.964Z,79.90
2022-09-10T17:27:44.538Z,80.58
2022-09-10T17:29:48.157Z,80.51
2022-09-10T17:31:52.867Z,80.60
2022-09-10T17:33:57.178Z,80.44
2022-09-10T17:36:04.382Z,80.72
2022-09-10T17:38:08.374Z,80.62
2022-09-10T17:40:13.176Z,81.32
2022-09-10T17:42:17.152Z,81.53
2022-09-10T17:44:21.355Z,81.84
2022-09-10T17:46:25.112Z,82.46
2022-09-10T17:48:30.566Z,82.65
2022-09-10T17:50:34.731Z,82.62
2022-09-10T17:52:40.948Z,83.30
2022-09-10T17:54:44.786Z,83.48
2022-09-10T17:56:48.583Z,83.34
2022-09-10T17:58:57.738Z,83.72
2022-09-10T18:01:02.637Z,84.09
2022-09-10T18:03:10.015Z,84.60
2022-09-10T18:05:13.811Z,84.84
2022-09-10T18:07:17.418Z,85.22
2022-09-10T18:09:23.801Z,85.23
2022-09-10T18:11:30.252Z,85.63
2022-09-10T18:13:34.657Z,86.21
2022-09-10T18:15:42.389Z,86.45
2022-09-10T18:17:46.076Z,86.63
2022-09-10T18:19:50.458Z,87.06
2022-09-10T18:21:54.088Z,87.23
2022-09-10T18:24:00.534Z,87.70
2022-09-10T18:26:14.886Z,87.82
2022-09-10T18:28:19.303Z,88.15
2022-09-10T18:30:22.836Z,87.98
2022-09-10T18:32:26.891Z,88.43
2022-09-10T18:34:32.294Z,88.85
2022-09-10T18:36:36.037Z,89.56
2022-09-10T18:38:39.677Z,90.08
2022-09-10T18:40:43.378Z,90.23
2022-09-10T18:42:48.458Z,90.97
2022-09-10T18:44:52.280Z,91.31
2022-09-10T18:46:56.608Z,91.95
2022-09-10T18:49:01.333Z,92.54
2022-09-10T18:51:07.185Z,92.71
2022-09-10T18:53:10.966Z,92.93
2022-09-10T18:55:14.783Z,93.64
2022-09-10T18:57:18.768Z,93.97
2022-09-10T18:59:25.476Z,94.06
2022-09-10T19:01:31.336Z,94.62
2022-09-10T19:03:39.333Z,94.42
2022-09-10T19:05:43.027Z,94.14
2022-09-10T19:07:46.894Z,94.22
2022-09-10T19:09:51.158Z,94.45
2022-09-10T19:11:56.918Z,94.85
2022-09-10T19:14:02.466Z,95.63
2022-09-10T19:16:08.093Z,95.45
2022-09-10T19:18:12.001Z,96.28
2022-09-10T19:20:15.890Z,96.79
2022-09-10T19:22:19.696Z,97.43
2022-09-10T19:24:44.032Z,97.66
2022-09-10T19:26:51.160Z,98.03
2022-09-10T19:28:58.958Z,98.11
2022-09-10T19:31:05.209Z,98.17
2022-09-10T19:33:10.277Z,98.00
2022-09-10T19:35:14.752Z,97.91
2022-09-10T19:37:19.684Z,99.38
2022-09-10T19:39:23.435Z,98.75
2022-09-10T19:41:27.398Z,99.39
2022-09-10T19:43:31.220Z,99.80
2022-09-10T19:45:35.935Z,99.93
2022-09-10T19:47:40.465Z,100.00
2022-09-10T19:49:45.445Z,100.00
2022-09-10T19:51:49.218Z,100.00
2022-09-10T19:53:52.870Z,100.00
2022-09-10T19:55:56.538Z,100.00
2022-09-10T19:58:00.287Z,100.00
2022-09-10T20:00:04.402Z,100.00
2022-09-10T20:02:15.239Z,100.00
2022-09-10T20:04:19.137Z,100.00
2022-09-10T20:06:25.625Z,100.00
2022-09-10T20:08:29.368Z,100.00
2022-09-10T20:10:33.842Z,100.00
2022-09-10T20:12:37.574Z,100.00
2022-09-10T20:14:41.253Z,100.00
2022-09-10T20:16:46.835Z,100.00
2022-09-10T20:18:50.398Z,100.00
2022-09-10T20:20:54.209Z,100.00
2022-09-10T20:23:01.670Z,100.00
2022-09-10T20:25:06.158Z,100.00
2022-09-10T20:27:09.996Z,100.00
2022-09-10T20:29:15.699Z,100.00
2022-09-10T20:31:19.726Z,100.00
2022-09-10T20:33:23.572Z,100.00
2022-09-10T20:35:27.226Z,100.00
2022-09-10T20:37:31.237Z,100.00
2022-09-10T20:39:36.653Z,100.00
2022-09-10T20:41:40.830Z,100.00
2022-09-10T20:43:44.637Z,100.00
2022-09-10T20:45:49.570Z,100.00
2022-09-10T20:47:53.183Z,100.00
2022-09-10T20:49:57.198Z,100.00
2022-09-10T20:52:00.769Z,100.00
2022-09-10T20:54:05.848Z,100.00
2022-09-10T20:56:13.199Z,100.00
2022-09-10T20:58:17.978Z,100.00
2022-09-10T21:00:21.786Z,100.00
2022-09-10T21:02:26.465Z,100.00
2022-09-10T21:04:30.544Z,100.00
2022-09-10T21:06:35.828Z,100.00
2022-09-10T21:08:40.838Z,100.00
2022-09-10T21:10:44.888Z,100.00
2022-09-10T21:12:49.887Z,100.00
2022-09-10T21:14:54.123Z,100.00
2022-09-10T21:16:58.182Z,100.00
2022-09-10T21:19:03.167Z,100.00
2022-09-10T21:21:08.278Z,99.94
2022-09-10T21:23:11.956Z,100.00
2022-09-10T21:25:16.456Z,99.83
2022-09-10T21:27:20.555Z,99.62
2022-09-10T21:29:25.361Z,99.60
2022-09-10T21:31:30.356Z,99.64
2022-09-10T21:33:34.968Z,99.91
2022-09-10T21:35:39.178Z,100.00
2022-09-10T21:37:43.006Z,99.97
2022-09-10T21:39:46.883Z,99.70
2022-09-10T21:41:52.046Z,99.60
2022-09-10T21:43:56.101Z,99.60
2022-09-10T21:46:04.512Z,100.00
2022-09-10T21:48:08.074Z,99.99
2022-09-10T21:50:11.945Z,100.00
2022-09-10T21:52:15.732Z,99.98
2022-09-10T21:54:22.113Z,99.70
2022-09-10T21:56:27.966Z,99.69
2022-09-10T21:58:33.824Z,99.83
2022-09-10T22:00:37.575Z,100.00
2022-09-10T22:02:43.370Z,100.00
2022-09-10T22:04:47.072Z,100.00
2022-09-10T22:06:50.898Z,100.00
2022-09-10T22:08:58.574Z,99.98
2022-09-10T22:11:06.895Z,100.00
2022-09-10T22:13:11.802Z,100.00
2022-09-10T22:15:15.633Z,100.00
2022-09-10T22:17:19.989Z,100.00
2022-09-10T22:19:27.510Z,100.00
2022-09-10T22:21:31.727Z,100.00
2022-09-10T22:23:37.970Z,100.00
2022-09-10T22:25:41.938Z,100.00
2022-09-10T22:27:45.467Z,100.00
2022-09-10T22:29:49.419Z,100.00
2022-09-10T22:31:53.065Z,100.00
2022-09-10T22:33:58.840Z,100.00
2022-09-10T22:36:15.389Z,100.00
2022-09-10T22:38:19.736Z,100.00
2022-09-10T22:40:24.583Z,100.00
2022-09-10T22:42:28.301Z,100.00
2022-09-10T22:44:31.842Z,100.00
2022-09-10T22:46:36.923Z,100.00
2022-09-10T22:48:42.691Z,100.00
2022-09-10T22:50:47.298Z,100.00
2022-09-10T22:52:52.281Z,100.00
2022-09-10T22:54:55.969Z,100.00
2022-09-10T22:56:59.773Z,100.00
2022-09-10T22:59:04.098Z,100.00
2022-09-10T23:01:09.283Z,100.00
2022-09-10T23:03:13.453Z,100.00
2022-09-10T23:05:17.360Z,100.00
2022-09-10T23:07:21.991Z,100.00
2022-09-10T23:09:27.190Z,100.00
2022-09-10T23:11:32.042Z,100.00
2022-09-10T23:13:36.192Z,100.00
2022-09-10T23:15:40.109Z,100.00
2022-09-10T23:17:44.010Z,100.00
2022-09-10T23:19:48.299Z,100.00
2022-09-10T23:21:54.027Z,100.00
2022-09-10T23:23:59.821Z,100.00
2022-09-10T23:26:09.601Z,100.00
2022-09-10T23:28:13.052Z,100.00
2022-09-10T23:30:17.370Z,100.00
2022-09-10T23:32:20.926Z,100.00
2022-09-10T23:34:24.283Z,100.00
2022-09-10T23:36:28.952Z,99.86
2022-09-10T23:38:33.513Z,100.00
2022-09-10T23:40:37.264Z,100.00
2022-09-10T23:42:41.936Z,100.00
2022-09-10T23:44:45.347Z,100.00
2022-09-10T23:46:48.634Z,100.00
2022-09-10T23:48:52.455Z,100.00
2022-09-10T23:50:55.882Z,100.00
2022-09-10T23:52:59.722Z,100.00
2022-09-10T23:55:02.931Z,100.00
2022-09-10T23:57:06.569Z,100.00
2022-09-10T23:59:11.548Z,100.00
